Time;durP1;ratioP1;P1;durP2;ratioP2;P2;SDS_P1;SDS_P2;PMS_P1;PMS_P2;Temp;Humidity;BMP_temperature;BMP_pressure;BME280_temperature;BME280_humidity;BME280_pressure;Samples;Min_cycle;Max_cycle;Signal;HPM_P1;HPM_P2
2023/05/01 00:00:43;;;;;;;4.63;2.30;;;8.40;99.90;;;;;;5131307;27;20031;-69
2023/05/01 00:03:09;;;;;;;3.38;2.25;;;8.30;99.90;;;;;;5123998;27;20512;-68
2023/05/01 00:05:35;;;;;;;3.85;2.20;;;8.30;99.90;;;;;;5144467;27;20070;-68
2023/05/01 00:08:01;;;;;;;4.68;1.90;;;8.30;99.90;;;;;;5138853;27;20035;-68
2023/05/01 00:10:27;;;;;;;;;;;8.30;99.90;;;;;;5134605;27;20081;-68
2023/05/01 00:12:52;;;;;;;3.15;2.42;;;8.30;99.90;;;;;;5129936;27;19915;-68
2023/05/01 00:15:18;;;;;;;6.00;2.67;;;8.20;99.90;;;;;;5129813;27;20088;-68
2023/05/01 00:17:44;;;;;;;3.45;2.40;;;8.30;99.90;;;;;;5112253;28;20047;-68
2023/05/01 00:20:10;;;;;;;5.47;2.85;;;8.30;99.90;;;;;;5130023;27;20050;-69
2023/05/01 00:22:35;;;;;;;3.78;2.40;;;8.30;99.90;;;;;;5129974;28;20047;-68
2023/05/01 00:25:01;;;;;;;3.58;2.50;;;8.30;99.90;;;;;;5129722;28;20050;-69
2023/05/01 00:27:27;;;;;;;5.65;2.55;;;8.30;99.90;;;;;;5130226;28;20137;-68
2023/05/01 00:29:53;;;;;;;4.07;2.72;;;8.30;99.90;;;;;;5129902;28;20382;-68
2023/05/01 00:32:18;;;;;;;4.88;2.60;;;8.30;99.90;;;;;;5130173;28;20042;-68
2023/05/01 00:34:46;;;;;;;3.53;2.35;;;8.30;99.90;;;;;;5110160;28;20062;-68
2023/05/01 00:37:12;;;;;;;6.25;2.83;;;8.30;99.90;;;;;;5109323;28;20177;-68
2023/05/01 00:39:38;;;;;;;4.80;2.80;;;8.30;99.90;;;;;;5120273;27;20035;-69
2023/05/01 00:42:04;;;;;;;4.47;2.50;;;8.40;99.90;;;;;;5134740;27;20035;-69
2023/05/01 00:44:29;;;;;;;5.50;2.53;;;8.40;99.90;;;;;;5132820;27;20054;-68
2023/05/01 00:46:58;;;;;;;5.07;2.50;;;8.30;99.90;;;;;;5133457;27;20034;-69
2023/05/01 00:49:25;;;;;;;3.40;2.60;;;8.40;99.90;;;;;;5142871;27;20054;-69
2023/05/01 00:51:53;;;;;;;;;;;8.30;99.90;;;;;;5145024;27;20419;-69
2023/05/01 00:54:20;;;;;;;4.38;2.10;;;8.30;99.90;;;;;;5150033;27;20002;-68
2023/05/01 00:56:46;;;;;;;;;;;8.30;99.90;;;;;;5137837;27;20074;-68
2023/05/01 00:59:13;;;;;;;4.87;2.73;;;8.30;99.90;;;;;;5120509;27;19923;-68
2023/05/01 01:01:40;;;;;;;4.18;2.58;;;8.30;99.90;;;;;;5143153;27;20118;-68
2023/05/01 01:04:07;;;;;;;3.03;2.10;;;8.30;99.90;;;;;;5134984;27;20107;-68
2023/05/01 01:07:01;;;;;;;2.47;1.83;;;8.20;99.90;;;;;;5138822;27;20053;-70
2023/05/01 01:09:36;;;;;;;2.60;2.10;;;8.20;99.90;;;;;;5145683;27;20054;-72
2023/05/01 01:12:17;;;;;;;3.65;2.10;;;8.20;99.90;;;;;;5149204;27;20051;-72
2023/05/01 01:15:04;;;;;;;3.35;2.10;;;8.10;99.90;;;;;;5132864;27;20042;-72
2023/05/01 01:17:36;;;;;;;;;;;8.10;99.90;;;;;;5134600;27;20039;-73
2023/05/01 01:20:17;;;;;;;3.17;2.22;;;8.10;99.90;;;;;;5131652;27;19927;-73
2023/05/01 01:22:50;;;;;;;4.32;2.40;;;8.10;99.90;;;;;;5129049;27;20035;-70
2023/05/01 01:25:44;;;;;;;5.63;2.90;;;8.10;99.90;;;;;;5136207;27;20457;-68
2023/05/01 01:28:37;;;;;;;3.90;2.80;;;8.10;99.90;;;;;;5128934;27;20054;-68
2023/05/01 01:31:48;;;;;;;4.32;2.70;;;8.10;99.90;;;;;;5142646;27;20089;-68
2023/05/01 01:34:26;;;;;;;3.88;2.60;;;8.10;99.90;;;;;;5036118;28;20037;-68
2023/05/01 01:37:23;;;;;;;5.00;2.33;;;8.00;99.90;;;;;;5125835;27;20046;-68
2023/05/01 01:39:53;;;;;;;3.00;2.03;;;8.00;99.90;;;;;;5130293;27;20122;-68
2023/05/01 01:42:25;;;;;;;3.47;1.95;;;7.90;99.90;;;;;;5131075;27;20047;-68
2023/05/01 01:44:54;;;;;;;3.22;2.20;;;7.90;99.90;;;;;;5128519;27;20406;-68
2023/05/01 01:47:27;;;;;;;3.42;2.20;;;7.90;99.90;;;;;;5138013;27;20070;-70
2023/05/01 01:49:55;;;;;;;3.33;2.20;;;7.90;99.90;;;;;;5138112;27;20099;-72
2023/05/01 01:52:22;;;;;;;3.05;2.00;;;7.80;99.90;;;;;;5131893;27;20039;-72
2023/05/01 01:54:54;;;;;;;2.20;1.83;;;7.80;99.90;;;;;;5131650;27;20031;-72
2023/05/01 01:57:23;;;;;;;3.78;2.35;;;7.80;99.90;;;;;;5136738;27;20584;-71
2023/05/01 01:59:50;;;;;;;3.55;2.50;;;7.80;99.90;;;;;;5136072;27;20042;-71
2023/05/01 02:02:21;;;;;;;3.80;2.20;;;7.80;99.90;;;;;;5127911;27;20047;-71
2023/05/01 02:04:52;;;;;;;3.88;2.40;;;7.80;99.90;;;;;;5126007;27;20062;-68
2023/05/01 02:07:19;;;;;;;4.93;2.40;;;7.80;99.90;;;;;;5137907;27;20038;-68
2023/05/01 02:09:47;;;;;;;3.55;2.50;;;7.80;99.90;;;;;;5114532;27;20036;-68
2023/05/01 02:12:15;;;;;;;3.88;2.10;;;7.70;99.90;;;;;;5132267;27;20355;-68
2023/05/01 02:14:41;;;;;;;4.15;2.33;;;7.80;99.90;;;;;;5113412;27;20047;-68
2023/05/01 02:17:09;;;;;;;4.85;2.47;;;7.70;99.90;;;;;;5112170;27;20483;-68
2023/05/01 02:19:39;;;;;;;3.78;2.15;;;7.80;99.90;;;;;;5111970;28;20062;-68
2023/05/01 02:22:06;;;;;;;4.07;2.55;;;7.80;99.90;;;;;;5111927;27;20048;-68
2023/05/01 02:24:33;;;;;;;3.63;2.42;;;7.80;99.90;;;;;;5096603;27;20055;-68
2023/05/01 02:27:13;;;;;;;2.83;2.10;;;7.80;99.90;;;;;;5112833;28;20115;-68
2023/05/01 02:29:39;;;;;;;3.72;2.35;;;7.70;99.90;;;;;;5111207;27;20088;-68
2023/05/01 02:32:05;;;;;;;3.97;2.28;;;7.70;99.90;;;;;;5120699;27;20444;-68
2023/05/01 02:34:34;;;;;;;2.85;2.10;;;7.70;99.90;;;;;;5132291;27;20126;-68
2023/05/01 02:37:00;;;;;;;2.85;2.10;;;7.70;99.90;;;;;;5131833;27;20067;-68
2023/05/01 02:39:26;;;;;;;2.63;1.88;;;7.60;99.90;;;;;;5131979;27;20050;-68
2023/05/01 02:41:54;;;;;;;2.92;1.80;;;7.60;99.90;;;;;;5133902;27;20096;-68
2023/05/01 02:44:22;;;;;;;3.33;1.98;;;7.60;99.90;;;;;;5136548;27;20053;-68
2023/05/01 02:46:50;;;;;;;3.30;2.03;;;7.60;99.90;;;;;;5138778;27;20050;-69
2023/05/01 02:49:17;;;;;;;3.65;2.28;;;7.50;99.90;;;;;;5132198;27;20544;-70
2023/05/01 02:51:45;;;;;;;3.58;2.20;;;7.50;99.90;;;;;;5136670;27;20058;-70
2023/05/01 02:54:12;;;;;;;2.67;2.00;;;7.40;99.90;;;;;;5144911;27;20049;-67
2023/05/01 02:56:38;;;;;;;2.95;2.20;;;7.40;99.90;;;;;;5128593;27;20039;-70
2023/05/01 02:59:03;;;;;;;2.25;2.03;;;7.40;99.90;;;;;;5131795;27;20733;-70
2023/05/01 03:01:29;;;;;;;3.10;2.08;;;7.40;99.90;;;;;;5133746;27;20053;-68
2023/05/01 03:03:55;;;;;;;4.10;2.40;;;7.40;99.90;;;;;;5149621;27;20137;-68
2023/05/01 03:06:20;;;;;;;4.82;2.35;;;7.40;99.90;;;;;;5130185;27;20324;-68
2023/05/01 03:08:46;;;;;;;3.20;2.38;;;7.40;99.90;;;;;;5141471;27;20038;-68
2023/05/01 03:11:13;;;;;;;2.63;2.13;;;7.40;99.90;;;;;;5137536;27;20150;-69
2023/05/01 03:13:38;;;;;;;4.75;2.40;;;7.30;99.90;;;;;;5143999;27;20465;-68
2023/05/01 03:16:04;;;;;;;3.88;2.40;;;7.30;99.90;;;;;;5138624;27;20045;-68
2023/05/01 03:18:30;;;;;;;3.65;2.60;;;7.30;99.90;;;;;;5125623;27;20390;-68
2023/05/01 03:20:56;;;;;;;5.75;3.13;;;7.30;99.90;;;;;;5133108;27;20046;-68
2023/05/01 03:23:22;;;;;;;4.70;3.30;;;7.20;99.90;;;;;;5140961;27;20047;-68
2023/05/01 03:25:48;;;;;;;4.57;3.20;;;7.30;99.90;;;;;;5135323;27;20542;-67
2023/05/01 03:28:15;;;;;;;5.22;3.25;;;7.20;99.90;;;;;;5126629;27;20048;-68
2023/05/01 03:30:41;;;;;;;4.13;2.80;;;7.30;99.90;;;;;;5149509;27;20046;-68
2023/05/01 03:33:07;;;;;;;5.15;3.20;;;7.20;99.90;;;;;;5132141;27;20047;-68
2023/05/01 03:35:32;;;;;;;5.18;3.05;;;7.20;99.90;;;;;;5120553;27;20083;-67
2023/05/01 03:37:58;;;;;;;5.20;2.90;;;7.20;99.90;;;;;;5139360;27;20039;-68
2023/05/01 03:40:24;;;;;;;6.00;3.05;;;7.20;99.90;;;;;;5139693;27;20046;-68
2023/05/01 03:42:49;;;;;;;3.58;2.50;;;7.10;99.90;;;;;;5132561;27;20039;-68
2023/05/01 03:45:15;;;;;;;3.55;2.70;;;7.10;99.90;;;;;;5140291;27;20189;-68
2023/05/01 03:47:41;;;;;;;4.55;3.13;;;7.10;99.90;;;;;;5130742;27;20039;-69
2023/05/01 03:50:08;;;;;;;6.80;3.28;;;7.10;99.90;;;;;;5131931;27;20070;-68
2023/05/01 03:52:33;;;;;;;6.25;3.15;;;7.10;99.90;;;;;;5137606;27;20047;-68
2023/05/01 03:54:59;;;;;;;4.20;3.08;;;7.10;99.90;;;;;;5143953;27;20086;-68
2023/05/01 03:57:26;;;;;;;4.50;2.97;;;7.10;99.90;;;;;;5138930;27;20936;-68
2023/05/01 03:59:52;;;;;;;;;;;7.10;99.90;;;;;;5141682;27;20047;-68
2023/05/01 04:02:17;;;;;;;6.28;3.30;;;7.00;99.90;;;;;;5139776;27;19938;-69
2023/05/01 04:04:44;;;;;;;6.70;3.60;;;7.00;99.90;;;;;;5138115;27;20040;-69
2023/05/01 04:07:10;;;;;;;4.88;3.55;;;7.10;99.90;;;;;;5137792;27;20031;-69
2023/05/01 04:09:36;;;;;;;;;;;7.10;99.90;;;;;;5136271;27;20050;-69
2023/05/01 04:12:01;;;;;;;5.28;3.75;;;7.10;99.90;;;;;;5115512;27;19915;-69
2023/05/01 04:14:28;;;;;;;5.32;3.60;;;7.10;99.90;;;;;;5124660;27;20115;-69
2023/05/01 04:16:54;;;;;;;6.72;3.60;;;7.10;99.90;;;;;;5109490;28;20542;-69
2023/05/01 04:19:19;;;;;;;4.15;3.08;;;7.10;99.90;;;;;;5108844;28;20138;-69
2023/05/01 04:21:46;;;;;;;5.30;3.50;;;7.10;99.90;;;;;;5109836;28;20122;-69
2023/05/01 04:24:12;;;;;;;6.82;3.15;;;7.20;99.90;;;;;;5111424;27;20173;-69
2023/05/01 04:26:38;;;;;;;5.80;3.30;;;7.10;99.90;;;;;;5122221;27;20124;-69
2023/05/01 04:29:03;;;;;;;3.80;2.80;;;7.10;99.90;;;;;;5097095;28;20043;-69
2023/05/01 04:31:29;;;;;;;5.07;2.92;;;7.10;99.90;;;;;;5121770;27;20046;-69
2023/05/01 04:33:55;;;;;;;3.78;2.45;;;7.20;99.90;;;;;;5114197;27;20039;-68
2023/05/01 04:36:21;;;;;;;3.55;2.20;;;7.20;99.90;;;;;;5113371;27;20161;-69
2023/05/01 04:38:48;;;;;;;2.97;2.17;;;7.20;99.90;;;;;;5124505;27;20050;-69
2023/05/01 04:41:13;;;;;;;;;;;7.20;99.90;;;;;;5114978;27;20043;-69
2023/05/01 04:43:39;;;;;;;2.10;1.60;;;7.30;99.90;;;;;;5130544;27;19919;-70
2023/05/01 04:46:05;;;;;;;2.30;1.70;;;7.20;99.90;;;;;;5134902;27;20065;-69
2023/05/01 04:48:30;;;;;;;1.60;1.38;;;7.30;99.90;;;;;;5141552;27;20050;-69
2023/05/01 04:50:57;;;;;;;2.28;1.30;;;7.40;99.90;;;;;;5121521;27;20038;-69
2023/05/01 04:53:22;;;;;;;;;;;7.30;99.90;;;;;;5124780;27;20031;-69
2023/05/01 04:55:49;;;;;;;2.53;2.08;;;7.40;99.90;;;;;;5136542;27;20392;-69
2023/05/01 04:58:15;;;;;;;3.67;1.90;;;7.50;99.90;;;;;;5141086;27;20034;-69
2023/05/01 05:00:40;;;;;;;3.10;2.42;;;7.50;99.90;;;;;;5146590;27;20035;-70
2023/05/01 05:03:06;;;;;;;3.13;2.38;;;7.60;99.90;;;;;;5135252;27;20051;-69
2023/05/01 05:05:32;;;;;;;2.65;2.20;;;7.60;99.90;;;;;;5142668;27;20046;-69
2023/05/01 05:07:59;;;;;;;4.15;3.17;;;7.70;99.90;;;;;;5137385;27;20045;-69
2023/05/01 05:10:25;;;;;;;5.82;3.50;;;7.80;99.90;;;;;;5142156;27;20069;-69
2023/05/01 05:12:50;;;;;;;4.10;3.10;;;7.90;99.90;;;;;;5135630;27;20118;-69
2023/05/01 05:15:16;;;;;;;6.60;3.95;;;8.00;99.90;;;;;;5121614;27;20049;-69
2023/05/01 05:17:41;;;;;;;5.40;3.90;;;8.10;99.90;;;;;;5118310;27;20043;-69
2023/05/01 05:20:08;;;;;;;4.57;3.30;;;8.20;99.90;;;;;;5139747;27;20043;-68
2023/05/01 05:22:36;;;;;;;5.05;3.80;;;8.20;99.90;;;;;;5135220;27;20462;-69
2023/05/01 05:25:05;;;;;;;5.28;3.70;;;8.30;99.90;;;;;;5140987;27;20074;-69
2023/05/01 05:27:36;;;;;;;5.68;4.35;;;8.40;99.90;;;;;;5151564;27;20067;-69
2023/05/01 05:30:04;;;;;;;6.55;3.75;;;8.40;99.90;;;;;;5136616;27;20053;-69
2023/05/01 05:32:30;;;;;;;5.05;3.63;;;8.50;99.90;;;;;;5137696;27;20047;-69
2023/05/01 05:34:57;;;;;;;5.07;3.80;;;8.50;99.90;;;;;;5121686;27;20047;-69
2023/05/01 05:37:24;;;;;;;;;;;8.60;99.90;;;;;;5121165;27;20126;-68
2023/05/01 05:39:50;;;;;;;;;;;8.70;99.90;;;;;;5140392;27;19979;-68
2023/05/01 05:42:16;;;;;;;3.88;2.50;;;8.70;99.90;;;;;;5114666;27;19926;-68
2023/05/01 05:44:47;;;;;;;2.75;2.13;;;8.90;99.90;;;;;;5130483;27;20043;-71
2023/05/01 05:47:13;;;;;;;5.03;2.97;;;9.00;99.90;;;;;;5130373;27;20035;-69
2023/05/01 05:49:38;;;;;;;3.30;2.50;;;9.10;99.90;;;;;;5140416;27;20088;-69
2023/05/01 05:52:04;;;;;;;4.50;2.47;;;9.10;94.30;;;;;;5114700;27;20478;-68
2023/05/01 05:54:30;;;;;;;3.28;2.42;;;9.10;86.50;;;;;;5137628;27;20043;-69
2023/05/01 05:56:55;;;;;;;3.58;2.20;;;9.10;81.70;;;;;;5136904;27;20387;-68
2023/05/01 05:59:21;;;;;;;4.32;2.22;;;9.10;76.00;;;;;;5138726;27;20047;-68
2023/05/01 06:01:47;;;;;;;2.88;1.77;;;9.10;65.40;;;;;;5139592;27;20043;-68
2023/05/01 06:04:15;;;;;;;2.22;1.65;;;9.10;66.60;;;;;;5143544;27;20074;-69
2023/05/01 06:06:41;;;;;;;2.88;1.80;;;9.20;77.20;;;;;;5128855;27;20053;-68
2023/05/01 06:09:11;;;;;;;2.53;1.55;;;9.40;94.90;;;;;;5114000;27;20039;-68
2023/05/01 06:11:37;;;;;;;2.20;1.52;;;9.50;86.90;;;;;;5132587;27;20046;-69
2023/05/01 06:14:02;;;;;;;2.60;1.60;;;9.70;62.60;;;;;;5131426;27;20038;-67
2023/05/01 06:16:28;;;;;;;1.73;1.55;;;9.90;73.60;;;;;;5098103;27;20117;-68
2023/05/01 06:18:54;;;;;;;2.13;1.83;;;10.20;59.00;;;;;;5152709;27;20046;-68
2023/05/01 06:21:20;;;;;;;1.65;1.50;;;10.60;22.80;;;;;;5152786;27;20134;-68
2023/05/01 06:23:45;;;;;;;2.75;2.08;;;10.80;1.00;;;;;;5153035;27;20550;-70
2023/05/01 06:26:11;;;;;;;2.25;1.70;;;11.20;1.00;;;;;;5132744;27;20035;-68
2023/05/01 06:28:37;;;;;;;2.35;1.70;;;11.40;1.00;;;;;;5131567;27;20091;-68
2023/05/01 06:31:03;;;;;;;3.50;2.53;;;11.50;1.00;;;;;;5131936;27;20043;-68
2023/05/01 06:33:28;;;;;;;3.95;2.42;;;11.60;1.00;;;;;;5132050;27;20394;-68
2023/05/01 06:35:54;;;;;;;3.25;2.28;;;11.70;1.00;;;;;;5131475;27;20043;-68
2023/05/01 06:38:20;;;;;;;3.45;2.20;;;11.90;99.90;;;;;;5131658;27;20043;-68
2023/05/01 06:40:48;;;;;;;4.05;2.40;;;11.90;99.90;;;;;;5131520;27;20051;-68
2023/05/01 06:43:14;;;;;;;3.63;2.60;;;12.00;99.90;;;;;;5114429;27;20122;-68
2023/05/01 06:45:40;;;;;;;2.10;1.80;;;12.10;99.90;;;;;;5131431;27;20074;-68
2023/05/01 06:48:06;;;;;;;5.88;2.38;;;12.20;99.90;;;;;;5130892;27;20406;-68
2023/05/01 06:50:32;;;;;;;3.63;2.42;;;12.30;99.90;;;;;;5131181;27;20047;-68
2023/05/01 06:52:59;;;;;;;3.28;2.15;;;12.50;99.90;;;;;;5131605;27;20050;-68
2023/05/01 06:55:26;;;;;;;3.42;1.83;;;12.70;99.90;;;;;;5131357;27;20118;-68
2023/05/01 06:57:51;;;;;;;2.55;2.10;;;12.90;99.90;;;;;;5131255;27;20512;-68
2023/05/01 07:00:17;;;;;;;3.80;2.50;;;13.00;99.90;;;;;;5131339;27;20043;-68
2023/05/01 07:02:44;;;;;;;4.80;2.58;;;13.20;99.90;;;;;;5131040;27;20050;-69
2023/05/01 07:05:11;;;;;;;4.32;2.65;;;13.10;99.90;;;;;;5131054;27;20494;-68
2023/05/01 07:07:36;;;;;;;3.10;2.05;;;13.10;99.90;;;;;;5131046;27;20100;-68
2023/05/01 07:10:02;;;;;;;2.85;1.73;;;13.30;99.90;;;;;;5131408;27;20151;-68
2023/05/01 07:12:28;;;;;;;4.90;2.55;;;13.50;99.90;;;;;;5131063;27;20588;-68
2023/05/01 07:14:55;;;;;;;2.78;2.00;;;13.70;99.90;;;;;;5130857;27;20577;-68
2023/05/01 07:17:21;;;;;;;3.42;2.22;;;13.70;99.90;;;;;;5130913;27;20043;-68
2023/05/01 07:19:48;;;;;;;;;;;13.60;99.90;;;;;;5131592;27;20038;-68
2023/05/01 07:22:15;;;;;;;5.65;2.88;;;13.70;99.90;;;;;;5130904;27;19939;-68
2023/05/01 07:24:40;;;;;;;2.95;1.70;;;13.70;99.90;;;;;;5130548;27;20162;-68
2023/05/01 07:27:06;;;;;;;2.45;1.60;;;13.70;99.90;;;;;;5130893;27;20142;-68
2023/05/01 07:29:32;;;;;;;2.63;1.77;;;13.90;99.90;;;;;;5130625;27;20046;-68
2023/05/01 07:31:58;;;;;;;3.63;2.10;;;14.10;99.90;;;;;;5130752;27;20043;-68
2023/05/01 07:34:24;;;;;;;;;;;14.30;96.00;;;;;;5130928;27;20483;-68
2023/05/01 07:36:49;;;;;;;2.17;1.40;;;14.60;83.30;;;;;;5131745;27;19926;-68
2023/05/01 07:39:16;;;;;;;3.97;2.10;;;14.90;22.10;;;;;;5130357;27;20417;-68
2023/05/01 07:41:42;;;;;;;2.72;2.30;;;15.00;2.70;;;;;;5131437;27;20039;-68
2023/05/01 07:44:08;;;;;;;4.10;2.30;;;15.20;36.70;;;;;;5130753;27;20075;-68
2023/05/01 07:46:35;;;;;;;3.33;2.05;;;15.50;67.30;;;;;;5130013;27;20632;-68
2023/05/01 07:49:00;;;;;;;3.10;1.90;;;15.70;1.00;;;;;;5130271;27;20090;-73
2023/05/01 07:51:26;;;;;;;2.63;1.50;;;15.90;1.00;;;;;;5130484;27;20082;-72
2023/05/01 07:53:52;;;;;;;4.28;1.92;;;16.20;1.00;;;;;;5130305;27;20475;-72
2023/05/01 07:56:18;;;;;;;3.03;1.50;;;16.50;1.00;;;;;;5130195;27;20051;-73
2023/05/01 07:58:43;;;;;;;2.17;1.40;;;16.60;1.00;;;;;;5129538;27;20046;-73
2023/05/01 08:01:09;;;;;;;2.90;1.80;;;16.70;1.00;;;;;;5130092;27;20063;-73
2023/05/01 08:03:35;;;;;;;2.67;1.65;;;16.50;99.90;;;;;;5130045;27;20054;-73
2023/05/01 08:06:01;;;;;;;3.97;1.80;;;16.80;1.00;;;;;;5130044;27;20049;-72
2023/05/01 08:08:27;;;;;;;2.78;1.55;;;16.60;1.00;;;;;;5130366;27;20090;-72
2023/05/01 08:10:53;;;;;;;2.45;1.50;;;16.40;99.90;;;;;;5129878;27;20094;-73
2023/05/01 08:13:19;;;;;;;2.92;1.63;;;16.50;1.00;;;;;;5130055;27;20043;-72
2023/05/01 08:15:46;;;;;;;3.05;1.67;;;16.40;99.90;;;;;;5129925;27;20512;-72
2023/05/01 08:18:18;;;;;;;2.92;1.50;;;16.40;99.90;;;;;;5129929;28;20038;-72
2023/05/01 08:20:45;;;;;;;2.22;1.60;;;16.40;99.90;;;;;;5129925;28;20054;-72
2023/05/01 08:23:11;;;;;;;2.25;1.45;;;16.40;1.00;;;;;;5129911;28;20462;-72
2023/05/01 08:25:36;;;;;;;5.18;2.20;;;16.30;99.90;;;;;;5130767;27;20062;-73
2023/05/01 08:28:02;;;;;;;2.78;2.05;;;16.30;1.00;;;;;;5130051;28;20047;-72
2023/05/01 08:30:30;;;;;;;3.40;1.80;;;16.40;1.00;;;;;;5129626;28;20739;-72
2023/05/01 08:32:56;;;;;;;2.47;1.60;;;16.70;1.00;;;;;;5130159;28;20058;-72
2023/05/01 08:35:21;;;;;;;;;;;17.00;1.00;;;;;;5130526;28;20132;-72
2023/05/01 08:37:47;;;;;;;2.47;1.60;;;17.00;1.00;;;;;;5129970;28;20346;-73
2023/05/01 08:40:13;;;;;;;;;;;17.10;99.90;;;;;;5130136;27;20494;-73
2023/05/01 08:42:39;;;;;;;4.13;1.95;;;17.10;99.90;;;;;;5131066;28;19919;-72
2023/05/01 08:45:08;;;;;;;;;;;17.00;99.90;;;;;;5131575;28;20398;-72
2023/05/01 08:47:39;;;;;;;3.53;1.80;;;17.40;99.90;;;;;;5129861;27;19923;-73
2023/05/01 08:50:12;;;;;;;2.00;1.55;;;17.30;99.90;;;;;;5129515;27;20116;-72
2023/05/01 08:52:44;;;;;;;3.63;1.60;;;17.60;99.90;;;;;;5129753;28;20046;-73
2023/05/01 08:55:12;;;;;;;2.92;1.42;;;17.80;99.90;;;;;;5130010;28;20035;-72
2023/05/01 08:57:43;;;;;;;1.85;1.30;;;17.80;99.90;;;;;;5129704;27;20043;-72
2023/05/01 09:00:13;;;;;;;1.83;0.93;;;17.80;99.90;;;;;;5113383;28;20047;-72
2023/05/01 09:02:41;;;;;;;2.65;1.20;;;17.90;99.90;;;;;;5129560;27;20131;-72
2023/05/01 09:05:08;;;;;;;3.38;1.40;;;17.70;99.90;;;;;;5130748;27;20094;-73
2023/05/01 09:07:34;;;;;;;2.95;1.60;;;17.50;99.90;;;;;;5112749;28;20442;-72
2023/05/01 09:09:59;;;;;;;;;;;17.50;99.90;;;;;;5130251;27;20190;-73
2023/05/01 09:12:26;;;;;;;2.80;1.55;;;17.40;99.90;;;;;;5133685;27;19923;-73
2023/05/01 09:14:53;;;;;;;2.30;1.30;;;17.20;99.90;;;;;;5133240;27;20045;-72
2023/05/01 09:17:20;;;;;;;2.97;1.40;;;17.50;99.90;;;;;;5134783;27;20039;-73
2023/05/01 09:19:47;;;;;;;4.55;1.90;;;17.80;99.90;;;;;;5133477;27;20043;-72
2023/05/01 09:22:14;;;;;;;3.75;1.67;;;17.50;99.90;;;;;;5133345;27;20050;-72
2023/05/01 09:24:39;;;;;;;3.47;1.63;;;17.50;99.90;;;;;;5133031;27;20115;-72
2023/05/01 09:27:05;;;;;;;;;;;17.40;99.90;;;;;;5116870;27;20456;-72
2023/05/01 09:29:40;;;;;;;4.68;2.03;;;17.40;99.90;;;;;;5133120;27;20320;-72
2023/05/01 09:32:23;;;;;;;5.00;2.08;;;17.30;99.90;;;;;;5132935;27;20035;-73
2023/05/01 09:34:50;;;;;;;2.60;1.73;;;17.40;99.90;;;;;;5132892;27;20150;-72
2023/05/01 09:37:26;;;;;;;4.63;1.80;;;17.60;99.90;;;;;;5132821;27;20047;-73
2023/05/01 09:40:08;;;;;;;6.18;1.88;;;17.80;99.90;;;;;;5134457;27;20038;-72
2023/05/01 09:42:39;;;;;;;3.70;1.65;;;17.80;99.90;;;;;;5132986;27;20032;-72
2023/05/01 09:45:13;;;;;;;3.08;2.00;;;17.80;99.90;;;;;;5115770;27;20401;-73
2023/05/01 09:47:40;;;;;;;3.90;1.90;;;18.30;99.90;;;;;;5132872;27;20065;-72
2023/05/01 09:50:06;;;;;;;2.45;1.30;;;18.40;99.90;;;;;;5132521;27;20063;-72
2023/05/01 09:52:32;;;;;;;2.97;1.48;;;18.70;99.90;;;;;;5132930;27;20389;-72
2023/05/01 09:55:12;;;;;;;;;;;18.70;99.90;;;;;;5132989;27;20051;-72
2023/05/01 09:57:38;;;;;;;2.00;1.20;;;18.60;99.90;;;;;;5132600;27;20356;-72
2023/05/01 10:00:07;;;;;;;1.73;0.90;;;18.90;99.90;;;;;;5132643;27;20406;-73
2023/05/01 10:02:33;;;;;;;1.75;0.85;;;19.10;99.90;;;;;;5132815;27;20051;-72
2023/05/01 10:04:59;;;;;;;1.00;0.80;;;19.30;99.90;;;;;;5132422;27;20047;-72
2023/05/01 10:07:25;;;;;;;2.50;1.30;;;19.60;99.90;;;;;;5132434;27;20118;-72
2023/05/01 10:09:52;;;;;;;2.33;1.08;;;19.30;99.90;;;;;;5132434;27;20043;-73
2023/05/01 10:12:25;;;;;;;1.63;0.90;;;19.30;99.90;;;;;;5132606;27;20112;-72
2023/05/01 10:14:56;;;;;;;2.28;0.90;;;19.20;99.90;;;;;;5132258;27;20043;-72
2023/05/01 10:17:22;;;;;;;1.85;1.00;;;19.20;99.90;;;;;;5132474;27;20044;-73
2023/05/01 10:19:49;;;;;;;2.83;1.33;;;19.30;99.90;;;;;;5132126;27;20043;-72
2023/05/01 10:22:15;;;;;;;2.45;0.80;;;18.80;99.90;;;;;;5131463;27;20124;-72
2023/05/01 10:24:42;;;;;;;;;;;18.90;99.90;;;;;;5132250;27;20127;-72
2023/05/01 10:27:09;;;;;;;1.90;1.00;;;18.50;99.90;;;;;;5132127;27;19919;-72
2023/05/01 10:29:36;;;;;;;2.58;1.10;;;18.50;99.90;;;;;;5131995;27;20134;-73
2023/05/01 10:32:03;;;;;;;1.42;1.00;;;18.20;99.90;;;;;;5131975;27;20494;-72
2023/05/01 10:34:33;;;;;;;2.03;1.00;;;18.80;99.90;;;;;;5131794;27;20078;-72
2023/05/01 10:37:11;;;;;;;1.30;0.90;;;18.80;99.90;;;;;;5132097;27;20412;-72
2023/05/01 10:39:37;;;;;;;2.25;1.02;;;19.10;99.90;;;;;;5131983;27;20348;-73
2023/05/01 10:42:03;;;;;;;;;;;18.90;99.90;;;;;;5132291;27;20123;-73
2023/05/01 10:44:29;;;;;;;2.38;1.45;;;19.10;99.90;;;;;;5131996;27;19919;-72
2023/05/01 10:46:55;;;;;;;1.75;0.90;;;19.10;99.90;;;;;;5131557;27;20410;-72
2023/05/01 10:49:21;;;;;;;;;;;19.60;99.90;;;;;;5131812;27;20063;-73
2023/05/01 10:51:59;;;;;;;4.38;1.60;;;19.70;99.90;;;;;;5132855;27;19926;-72
2023/05/01 10:54:26;;;;;;;2.88;1.45;;;19.30;99.90;;;;;;5131406;27;20046;-72
2023/05/01 10:56:57;;;;;;;4.72;1.60;;;19.20;99.90;;;;;;5131168;27;20122;-73
2023/05/01 10:59:23;;;;;;;3.03;1.40;;;19.10;99.90;;;;;;5131337;27;20504;-73
2023/05/01 11:01:50;;;;;;;3.95;1.50;;;19.40;99.90;;;;;;5131162;27;20047;-72
2023/05/01 11:04:22;;;;;;;3.22;1.52;;;19.30;99.90;;;;;;5131176;27;20131;-73
2023/05/01 11:06:57;;;;;;;3.20;1.60;;;19.10;99.90;;;;;;5131235;27;20591;-72
2023/05/01 11:09:36;;;;;;;2.95;1.30;;;19.00;99.90;;;;;;5114304;27;20038;-73
2023/05/01 11:12:03;;;;;;;4.10;1.75;;;19.00;99.90;;;;;;5131353;27;20726;-72
2023/05/01 11:14:56;;;;;;;3.40;1.52;;;19.00;99.90;;;;;;5130953;27;20154;-72
2023/05/01 11:17:42;;;;;;;3.72;1.52;;;19.30;99.90;;;;;;5113678;27;20086;-73
2023/05/01 11:20:24;;;;;;;3.35;1.55;;;19.20;99.90;;;;;;5113964;27;20394;-73
2023/05/01 11:22:52;;;;;;;4.00;1.40;;;19.40;99.90;;;;;;5130876;27;20099;-72
2023/05/01 11:25:26;;;;;;;4.45;1.67;;;19.50;99.90;;;;;;5130943;27;20432;-72
2023/05/01 11:27:58;;;;;;;3.05;1.40;;;19.50;99.90;;;;;;5130996;27;20046;-73
2023/05/01 11:30:24;;;;;;;2.67;1.40;;;19.50;99.90;;;;;;5132560;27;20027;-72
2023/05/01 11:32:50;;;;;;;3.13;1.75;;;20.00;99.90;;;;;;5113402;27;20074;-72
2023/05/01 11:35:17;;;;;;;3.17;1.40;;;19.90;99.90;;;;;;5130614;27;20801;-72
2023/05/01 11:37:44;;;;;;;3.70;1.20;;;20.50;99.90;;;;;;5113573;27;20081;-72
2023/05/01 11:40:30;;;;;;;2.17;0.90;;;20.60;99.90;;;;;;5130552;27;20043;-73
2023/05/01 11:43:04;;;;;;;1.30;1.10;;;20.70;99.90;;;;;;5130587;27;20053;-72
2023/05/01 11:45:31;;;;;;;1.90;0.80;;;20.60;99.90;;;;;;5130624;27;20088;-73
2023/05/01 11:47:57;;;;;;;1.35;0.75;;;20.20;99.90;;;;;;5130757;27;20502;-73
2023/05/01 11:50:32;;;;;;;0.98;0.68;;;20.10;99.90;;;;;;5130664;27;20047;-73
2023/05/01 11:52:57;;;;;;;1.52;0.70;;;19.80;99.90;;;;;;5130469;27;20051;-72
2023/05/01 11:55:33;;;;;;;;;;;19.70;99.90;;;;;;5132120;27;20039;-73
2023/05/01 11:57:59;;;;;;;2.05;0.98;;;19.40;99.90;;;;;;5130588;27;19938;-72
2023/05/01 12:00:28;;;;;;;1.95;1.10;;;19.10;99.90;;;;;;5130346;27;20055;-72
2023/05/01 12:03:02;;;;;;;1.10;0.88;;;19.10;99.90;;;;;;5130057;27;20047;-73
2023/05/01 12:05:29;;;;;;;1.75;1.13;;;19.30;99.90;;;;;;5130253;27;20047;-74
2023/05/01 12:08:18;;;;;;;2.67;1.20;;;19.00;99.90;;;;;;5130246;27;20145;-72
2023/05/01 12:10:47;;;;;;;5.07;1.45;;;18.80;99.90;;;;;;5130200;27;20047;-73
2023/05/01 12:13:14;;;;;;;2.83;1.23;;;18.80;99.90;;;;;;5130229;27;20043;-73
2023/05/01 12:16:02;;;;;;;2.50;1.25;;;18.80;99.90;;;;;;5130110;27;20051;-72
2023/05/01 12:18:28;;;;;;;3.35;1.33;;;18.70;99.90;;;;;;5130088;27;20043;-72
2023/05/01 12:20:53;;;;;;;;;;;19.00;99.90;;;;;;5130311;27;20049;-72
2023/05/01 12:23:33;;;;;;;2.80;1.30;;;19.50;99.90;;;;;;5130143;28;19937;-72
2023/05/01 12:26:02;;;;;;;2.67;1.45;;;20.00;99.90;;;;;;5129899;28;20051;-72
2023/05/01 12:28:28;;;;;;;2.53;1.38;;;20.10;99.90;;;;;;5130024;27;20104;-73
2023/05/01 12:31:01;;;;;;;3.00;1.30;;;20.20;99.90;;;;;;5129973;27;20079;-72
2023/05/01 12:33:26;;;;;;;2.45;1.08;;;20.30;99.90;;;;;;5130238;27;20455;-73
2023/05/01 12:35:52;;;;;;;;;;;20.20;99.90;;;;;;5130447;28;20074;-73
2023/05/01 12:38:19;;;;;;;2.30;1.23;;;19.80;99.90;;;;;;5129678;27;19922;-73
2023/05/01 12:40:54;;;;;;;3.65;1.30;;;19.40;99.90;;;;;;5129900;27;20055;-73
2023/05/01 12:43:34;;;;;;;2.88;1.30;;;19.30;99.90;;;;;;5130115;27;20058;-73
2023/05/01 12:46:02;;;;;;;2.45;1.20;;;19.00;99.90;;;;;;5131846;27;20043;-73
2023/05/01 12:48:29;;;;;;;3.47;1.30;;;18.80;99.90;;;;;;5134056;27;20135;-73
2023/05/01 12:50:55;;;;;;;4.10;1.40;;;18.50;99.90;;;;;;5133772;27;20047;-73
2023/05/01 12:53:23;;;;;;;2.55;1.30;;;18.50;99.90;;;;;;5134156;27;20083;-73
2023/05/01 12:55:51;;;;;;;4.15;1.60;;;18.40;99.90;;;;;;5133685;27;20142;-73
2023/05/01 12:58:17;;;;;;;2.35;1.27;;;18.20;99.90;;;;;;5133874;27;20122;-73
2023/05/01 13:00:47;;;;;;;;;;;18.30;99.90;;;;;;5134088;27;20058;-73
2023/05/01 13:03:16;;;;;;;2.38;1.10;;;18.40;99.90;;;;;;5133631;27;19922;-74